Time;durP1;ratioP1;P1;durP2;ratioP2;P2;SDS_P1;SDS_P2;PMS_P1;PMS_P2;Temp;Humidity;BMP_temperature;BMP_pressure;BME280_temperature;BME280_humidity;BME280_pressure;Samples;Min_cycle;Max_cycle;Signal;HPM_P1;HPM_P2
2022/01/01 00:02:02;;;;;;;117.35;42.33;;;11.90;99.90;;;;;;5032926;28;20052;-84
2022/01/01 00:04:28;;;;;;;106.75;41.42;;;11.90;99.90;;;;;;5017092;28;20052;-84
2022/01/01 00:06:54;;;;;;;110.75;41.22;;;12.00;99.90;;;;;;5049932;28;20393;-84
2022/01/01 00:09:19;;;;;;;97.60;40.13;;;12.10;99.90;;;;;;5033107;28;20374;-84
2022/01/01 00:11:45;;;;;;;109.50;42.55;;;12.10;99.90;;;;;;5016583;28;20049;-84
2022/01/01 00:14:11;;;;;;;110.13;42.10;;;12.10;99.90;;;;;;5049287;28;20041;-84
2022/01/01 00:16:36;;;;;;;116.10;42.67;;;12.00;99.90;;;;;;4984183;28;20512;-84
2022/01/01 00:19:02;;;;;;;117.40;44.13;;;12.10;99.90;;;;;;5032266;28;20392;-84
2022/01/01 00:21:28;;;;;;;112.45;42.22;;;12.00;99.90;;;;;;5033092;28;20103;-84
2022/01/01 00:23:54;;;;;;;116.88;44.63;;;12.00;99.90;;;;;;5016681;28;20049;-84
2022/01/01 00:26:20;;;;;;;114.03;44.28;;;11.90;99.90;;;;;;5033440;28;20046;-84
2022/01/01 00:28:46;;;;;;;121.65;44.50;;;11.90;99.90;;;;;;5032936;28;20559;-84
2022/01/01 00:31:11;;;;;;;111.60;43.65;;;12.00;99.90;;;;;;5049292;28;20049;-84
2022/01/01 00:33:37;;;;;;;126.25;44.35;;;11.80;99.90;;;;;;5032906;28;20099;-84
2022/01/01 00:36:04;;;;;;;109.95;40.70;;;11.90;99.90;;;;;;5016358;28;20493;-84
2022/01/01 00:38:29;;;;;;;104.70;39.63;;;11.90;99.90;;;;;;5000242;28;20037;-84
2022/01/01 00:40:55;;;;;;;123.95;40.03;;;11.90;99.90;;;;;;5032800;28;20052;-84
2022/01/01 00:43:21;;;;;;;96.38;37.92;;;12.00;99.90;;;;;;5032463;28;20106;-85
2022/01/01 00:45:47;;;;;;;105.43;40.60;;;12.00;99.90;;;;;;5032742;28;20038;-84
2022/01/01 00:48:13;;;;;;;111.22;36.97;;;12.00;99.90;;;;;;5049100;28;20046;-85
2022/01/01 00:50:39;;;;;;;114.18;39.30;;;11.90;99.90;;;;;;5032726;28;20053;-84
2022/01/01 00:53:05;;;;;;;110.40;38.08;;;11.90;99.90;;;;;;5032791;28;20041;-84
2022/01/01 00:55:30;;;;;;;103.63;35.80;;;11.90;99.90;;;;;;5032679;28;20085;-84
2022/01/01 00:57:56;;;;;;;111.00;35.65;;;11.80;99.90;;;;;;4999665;28;20045;-84
2022/01/01 01:00:22;;;;;;;95.30;36.38;;;11.80;99.90;;;;;;5031961;28;20063;-85
2022/01/01 01:02:47;;;;;;;105.75;34.70;;;11.70;99.90;;;;;;5032552;28;20050;-84
2022/01/01 01:05:13;;;;;;;94.95;32.13;;;11.70;99.90;;;;;;5032675;28;20477;-85
2022/01/01 01:07:39;;;;;;;106.97;33.22;;;11.70;99.90;;;;;;5016574;28;20056;-85
2022/01/01 01:10:06;;;;;;;87.30;29.38;;;11.80;99.90;;;;;;5032624;28;20042;-85
2022/01/01 01:12:44;;;;;;;93.85;30.92;;;11.80;99.90;;;;;;5016142;28;20088;-85
2022/01/01 01:15:17;;;;;;;101.85;30.63;;;11.80;99.90;;;;;;5032174;28;20133;-85
2022/01/01 01:17:48;;;;;;;104.57;30.60;;;11.80;99.90;;;;;;5032637;28;20053;-85
2022/01/01 01:20:14;;;;;;;106.25;31.35;;;11.70;99.90;;;;;;5032647;28;20077;-85
2022/01/01 01:22:40;;;;;;;101.80;31.15;;;11.70;99.90;;;;;;5049051;28;20046;-85
2022/01/01 01:25:07;;;;;;;86.50;29.83;;;11.60;99.90;;;;;;5049054;28;20049;-84
2022/01/01 01:27:35;;;;;;;92.97;28.77;;;11.60;99.90;;;;;;5016147;28;20046;-85
2022/01/01 01:30:02;;;;;;;93.65;28.55;;;11.60;99.90;;;;;;5033579;28;20046;-85
2022/01/01 01:32:28;;;;;;;88.45;26.75;;;11.60;99.90;;;;;;5019504;28;20097;-85
2022/01/01 01:34:54;;;;;;;89.63;28.33;;;11.50;99.90;;;;;;5019864;28;20138;-85
2022/01/01 01:37:21;;;;;;;102.68;27.27;;;11.60;99.90;;;;;;5020030;28;20041;-85
2022/01/01 01:39:47;;;;;;;88.65;26.30;;;11.60;99.90;;;;;;5035924;28;20182;-85
2022/01/01 01:42:14;;;;;;;94.90;28.42;;;11.50;99.90;;;;;;5052905;28;20140;-85
2022/01/01 01:44:43;;;;;;;91.90;26.08;;;11.60;99.90;;;;;;5035790;28;20049;-85
2022/01/01 01:47:15;;;;;;;90.30;27.23;;;11.50;99.90;;;;;;5004209;28;20132;-86
2022/01/01 01:49:46;;;;;;;98.03;28.63;;;11.60;99.90;;;;;;5036073;28;20045;-85
2022/01/01 01:52:15;;;;;;;101.72;31.55;;;11.60;99.90;;;;;;5004166;28;20057;-85
2022/01/01 01:54:41;;;;;;;106.70;31.60;;;11.50;99.90;;;;;;5019172;28;20476;-85
2022/01/01 01:57:09;;;;;;;114.00;34.25;;;11.50;99.90;;;;;;5035929;28;20060;-85
2022/01/01 01:59:34;;;;;;;124.80;36.50;;;11.60;99.90;;;;;;5018655;28;20060;-85
2022/01/01 02:02:00;;;;;;;139.18;39.40;;;11.60;99.90;;;;;;5035749;28;20041;-85
2022/01/01 02:04:26;;;;;;;132.27;39.03;;;11.50;99.90;;;;;;5035694;28;20445;-85
2022/01/01 02:06:51;;;;;;;155.85;43.08;;;11.50;99.90;;;;;;5003082;28;20041;-85
2022/01/01 02:09:17;;;;;;;141.02;44.88;;;11.60;99.90;;;;;;5035290;28;20128;-85
2022/01/01 02:11:43;;;;;;;170.20;48.10;;;11.60;99.90;;;;;;5035583;28;20042;-85
2022/01/01 02:14:36;;;;;;;154.10;47.95;;;11.70;99.90;;;;;;5035554;28;20436;-85
2022/01/01 02:19:30;;;;;;;163.18;54.80;;;11.60;99.90;;;;;;5018508;28;20397;-86
2022/01/01 02:22:00;;;;;;;162.15;53.85;;;11.60;99.90;;;;;;5018758;28;20089;-85
2022/01/01 02:24:26;;;;;;;177.23;55.03;;;11.60;99.90;;;;;;5018626;28;20056;-85
2022/01/01 02:26:52;;;;;;;159.55;53.53;;;11.50;99.90;;;;;;5018848;28;20045;-85
2022/01/01 02:29:18;;;;;;;176.60;54.25;;;11.50;99.90;;;;;;5018793;28;20132;-85
2022/01/01 02:31:44;;;;;;;177.70;51.55;;;11.60;99.90;;;;;;5035224;28;20045;-85
2022/01/01 02:34:11;;;;;;;146.57;50.65;;;11.50;99.90;;;;;;5051771;28;20408;-85
2022/01/01 02:36:39;;;;;;;151.88;47.67;;;11.50;99.90;;;;;;5035198;28;20057;-85
2022/01/01 02:39:19;;;;;;;145.40;46.15;;;11.50;99.90;;;;;;5018416;28;20064;-85
2022/01/01 02:41:48;;;;;;;149.02;46.08;;;11.50;99.90;;;;;;5034716;28;20546;-85
2022/01/01 02:44:14;;;;;;;139.60;42.25;;;11.40;99.90;;;;;;5017851;28;20504;-85
2022/01/01 02:46:40;;;;;;;153.93;46.45;;;11.40;99.90;;;;;;5035651;28;20045;-85
2022/01/01 02:49:06;;;;;;;144.25;43.20;;;11.50;99.90;;;;;;5018499;28;20531;-85
2022/01/01 02:51:32;;;;;;;132.18;42.70;;;11.50;99.90;;;;;;5034737;28;20045;-85
2022/01/01 02:53:58;;;;;;;134.57;44.10;;;11.50;99.90;;;;;;5034843;28;20057;-85
2022/01/01 02:56:24;;;;;;;141.00;44.60;;;11.50;99.90;;;;;;5035224;28;20059;-86
2022/01/01 02:58:50;;;;;;;146.65;46.95;;;11.50;99.90;;;;;;5017843;28;20053;-85
2022/01/01 03:01:17;;;;;;;141.55;48.05;;;11.50;99.90;;;;;;5034725;28;20506;-85
2022/01/01 03:03:43;;;;;;;138.98;46.40;;;11.50;99.90;;;;;;5018161;28;20088;-85
2022/01/01 03:06:09;;;;;;;150.57;50.30;;;11.50;99.90;;;;;;5034506;28;20093;-85
2022/01/01 03:08:35;;;;;;;155.88;49.97;;;11.60;99.90;;;;;;5034793;28;20503;-85
2022/01/01 03:11:02;;;;;;;141.52;49.65;;;11.70;99.90;;;;;;5017901;28;20045;-85
2022/01/01 03:13:29;;;;;;;143.85;53.17;;;11.60;99.90;;;;;;5033892;28;20492;-85
2022/01/01 03:15:55;;;;;;;167.75;53.85;;;11.50;99.90;;;;;;5018454;28;20140;-86
2022/01/01 03:18:21;;;;;;;153.57;52.30;;;11.50;99.90;;;;;;5034415;28;20128;-86
2022/01/01 03:20:46;;;;;;;157.48;53.00;;;11.60;99.90;;;;;;5017903;28;20584;-85
2022/01/01 03:23:12;;;;;;;154.80;54.25;;;11.50;99.90;;;;;;5017702;28;20038;-85
2022/01/01 03:25:38;;;;;;;158.32;53.83;;;11.50;99.90;;;;;;5034141;28;20489;-85
2022/01/01 03:28:05;;;;;;;144.27;51.83;;;11.50;99.90;;;;;;4985278;28;20088;-85
2022/01/01 03:30:32;;;;;;;151.68;54.08;;;11.60;99.90;;;;;;5034755;28;20132;-85
2022/01/01 03:32:58;;;;;;;152.95;55.85;;;11.50;99.90;;;;;;5000925;28;20060;-85
2022/01/01 03:35:23;;;;;;;168.57;55.03;;;11.50;99.90;;;;;;5017414;28;20060;-85
2022/01/01 03:37:49;;;;;;;155.00;53.80;;;11.50;99.90;;;;;;5017385;28;20045;-86
2022/01/01 03:40:15;;;;;;;155.80;57.17;;;11.50;99.90;;;;;;5034018;28;20046;-85
2022/01/01 03:42:41;;;;;;;161.90;53.15;;;11.50;99.90;;;;;;5017292;28;20128;-85
2022/01/01 03:45:08;;;;;;;156.10;52.97;;;11.50;99.90;;;;;;5016975;28;20064;-85
2022/01/01 03:47:34;;;;;;;133.55;50.72;;;11.50;99.90;;;;;;5017591;28;20041;-85
2022/01/01 03:50:00;;;;;;;149.15;51.92;;;11.50;99.90;;;;;;5017252;28;20045;-85
2022/01/01 03:52:26;;;;;;;148.85;50.55;;;11.50;99.90;;;;;;5050088;28;20052;-85
2022/01/01 03:54:52;;;;;;;131.15;46.90;;;11.50;99.90;;;;;;5050137;28;20132;-85
2022/01/01 03:57:20;;;;;;;149.93;49.95;;;11.50;99.90;;;;;;5033352;28;20464;-86
2022/01/01 03:59:47;;;;;;;142.50;50.97;;;11.50;99.90;;;;;;4985023;28;20080;-85
2022/01/01 04:02:13;;;;;;;145.13;48.90;;;11.50;99.90;;;;;;5033447;28;20519;-85
2022/01/01 04:04:39;;;;;;;154.48;50.45;;;11.50;99.90;;;;;;5050515;28;20111;-86
2022/01/01 04:07:04;;;;;;;152.85;49.58;;;11.60;99.90;;;;;;5017046;28;20114;-85
2022/01/01 04:09:30;;;;;;;153.35;51.35;;;11.70;99.90;;;;;;5016981;28;20499;-86
2022/01/01 04:11:56;;;;;;;147.55;51.40;;;11.80;99.90;;;;;;5017074;28;20049;-86
2022/01/01 04:14:21;;;;;;;150.10;51.78;;;11.80;99.90;;;;;;5049689;28;20037;-86
2022/01/01 04:16:47;;;;;;;158.32;51.60;;;11.80;99.90;;;;;;5016910;28;20140;-86
2022/01/01 04:19:14;;;;;;;154.55;50.97;;;11.80;99.90;;;;;;5033133;28;20037;-86
2022/01/01 04:21:40;;;;;;;151.60;52.70;;;11.80;99.90;;;;;;5033209;28;20144;-86
2022/01/01 04:24:05;;;;;;;145.25;50.92;;;11.70;99.90;;;;;;5033272;28;20496;-86
2022/01/01 04:26:33;;;;;;;148.23;52.58;;;11.80;99.90;;;;;;5016634;28;20118;-86
2022/01/01 04:28:59;;;;;;;146.45;53.22;;;11.80;99.90;;;;;;5033059;28;20493;-86
2022/01/01 04:31:24;;;;;;;162.57;53.25;;;11.80;99.90;;;;;;4999952;28;20053;-86
2022/01/01 04:33:50;;;;;;;157.75;56.70;;;11.70;99.90;;;;;;5016461;28;20050;-86
2022/01/01 04:36:16;;;;;;;170.30;57.40;;;11.80;99.90;;;;;;5016318;28;20045;-86
2022/01/01 04:38:44;;;;;;;150.68;55.90;;;11.80;99.90;;;;;;5032794;28;20488;-86
2022/01/01 04:41:15;;;;;;;165.80;56.10;;;11.80;99.90;;;;;;5016642;28;20476;-86
2022/01/01 04:43:42;;;;;;;159.25;56.70;;;11.80;99.90;;;;;;5016025;28;20055;-86
2022/01/01 04:46:10;;;;;;;159.38;58.08;;;11.70;99.90;;;;;;5016265;28;20051;-86
2022/01/01 04:48:37;;;;;;;173.98;61.25;;;11.80;99.90;;;;;;5032988;28;20056;-86
2022/01/01 04:51:07;;;;;;;176.15;64.50;;;11.80;99.90;;;;;;5032490;28;20081;-86
2022/01/01 04:53:39;;;;;;;195.07;66.35;;;11.90;99.90;;;;;;5032831;28;20049;-86
2022/01/01 04:56:07;;;;;;;199.25;69.03;;;11.90;99.90;;;;;;5032705;28;20392;-86
2022/01/01 04:58:33;;;;;;;195.38;70.18;;;11.80;99.90;;;;;;5049230;28;20057;-86
2022/01/01 05:00:59;;;;;;;184.60;69.65;;;11.80;99.90;;;;;;5016442;28;20136;-86
2022/01/01 05:03:25;;;;;;;185.02;69.63;;;11.80;99.90;;;;;;5032721;28;20132;-86
2022/01/01 05:05:50;;;;;;;196.70;70.72;;;11.80;99.90;;;;;;5037758;28;20132;-86
2022/01/01 05:08:16;;;;;;;183.85;71.75;;;11.80;99.90;;;;;;5039307;28;20049;-86
2022/01/01 05:10:42;;;;;;;214.13;74.45;;;11.80;99.90;;;;;;5039259;28;20041;-86
2022/01/01 05:13:07;;;;;;;208.23;76.18;;;11.90;99.90;;;;;;5039206;28;20492;-86
2022/01/01 05:15:33;;;;;;;199.93;77.20;;;11.90;99.90;;;;;;5022625;28;20049;-86
2022/01/01 05:17:59;;;;;;;205.30;78.20;;;12.00;99.90;;;;;;5022539;28;20041;-86
2022/01/01 05:20:25;;;;;;;216.55;81.47;;;11.90;99.90;;;;;;5037758;28;20045;-87
2022/01/01 05:22:51;;;;;;;201.00;79.85;;;11.90;99.90;;;;;;5020664;28;20045;-85
2022/01/01 05:25:16;;;;;;;219.63;83.45;;;11.90;99.90;;;;;;5022043;28;20419;-86
2022/01/01 05:27:43;;;;;;;207.93;82.15;;;12.00;99.90;;;;;;5022207;28;20131;-86
2022/01/01 05:30:10;;;;;;;216.88;85.68;;;11.90;99.90;;;;;;5039281;28;20049;-86
2022/01/01 05:32:35;;;;;;;204.07;81.32;;;12.00;99.90;;;;;;5022716;28;20128;-86
2022/01/01 05:35:01;;;;;;;208.27;82.90;;;11.90;99.90;;;;;;5038962;28;20136;-86
2022/01/01 05:37:27;;;;;;;201.57;80.22;;;11.90;99.90;;;;;;5038904;28;20049;-86
2022/01/01 05:39:53;;;;;;;197.93;77.45;;;11.80;99.90;;;;;;5022145;28;20041;-86
2022/01/01 05:42:19;;;;;;;191.90;73.80;;;11.80;99.90;;;;;;5039437;28;20400;-86
2022/01/01 05:44:44;;;;;;;185.50;69.55;;;11.70;99.90;;;;;;5005644;28;20050;-86
2022/01/01 05:47:10;;;;;;;191.38;71.30;;;11.60;99.90;;;;;;5055201;28;20064;-87
2022/01/01 05:49:36;;;;;;;180.30;66.18;;;11.60;99.90;;;;;;5055647;28;20631;-86
2022/01/01 05:52:02;;;;;;;182.20;66.57;;;11.60;99.90;;;;;;5038574;28;20041;-86
2022/01/01 05:54:27;;;;;;;191.27;66.50;;;11.70;99.90;;;;;;5038291;28;20053;-87
2022/01/01 05:56:53;;;;;;;181.80;66.53;;;11.80;99.90;;;;;;5022350;28;20045;-86
2022/01/01 05:59:20;;;;;;;176.88;61.60;;;11.70;99.90;;;;;;5021604;28;20057;-87
2022/01/01 06:01:46;;;;;;;167.40;58.47;;;11.70;99.90;;;;;;5055550;28;20092;-87
2022/01/01 06:04:11;;;;;;;169.07;58.60;;;11.80;99.90;;;;;;5038788;28;20063;-87
2022/01/01 06:06:37;;;;;;;186.82;57.90;;;11.80;99.90;;;;;;5022598;28;20053;-86
2022/01/01 06:09:03;;;;;;;165.57;53.75;;;11.80;99.90;;;;;;5022345;28;20132;-87
2022/01/01 06:11:29;;;;;;;174.70;55.42;;;11.70;99.90;;;;;;5022389;28;20473;-86
2022/01/01 06:13:54;;;;;;;174.35;54.78;;;11.90;99.90;;;;;;5038595;28;20089;-87
2022/01/01 06:16:20;;;;;;;161.70;52.13;;;11.80;99.90;;;;;;5036417;28;20099;-87
2022/01/01 06:18:46;;;;;;;150.30;47.08;;;11.80;99.90;;;;;;5052287;28;20525;-87
2022/01/01 06:21:11;;;;;;;175.60;49.65;;;11.70;99.90;;;;;;5035514;28;20041;-86
2022/01/01 06:23:39;;;;;;;181.23;49.28;;;11.60;99.90;;;;;;5035473;28;20135;-86
2022/01/01 06:26:06;;;;;;;179.55;48.65;;;11.50;99.90;;;;;;5035555;28;20045;-87
2022/01/01 06:28:31;;;;;;;184.13;48.47;;;11.60;99.90;;;;;;5035394;28;20046;-87
2022/01/01 06:30:57;;;;;;;209.50;49.50;;;11.60;99.90;;;;;;5019254;28;20053;-87
2022/01/01 06:33:23;;;;;;;192.55;48.10;;;11.60;99.90;;;;;;5052005;28;20392;-86
2022/01/01 06:35:48;;;;;;;167.13;42.22;;;11.60;99.90;;;;;;5052026;28;20049;-87
2022/01/01 06:38:15;;;;;;;178.35;44.13;;;11.70;99.90;;;;;;5002062;28;20048;-87
2022/01/01 06:40:42;;;;;;;183.90;45.38;;;11.80;99.90;;;;;;5018615;28;20045;-87
2022/01/01 06:43:10;;;;;;;157.68;41.08;;;11.80;99.90;;;;;;5035186;28;20085;-87
2022/01/01 06:45:36;;;;;;;156.68;39.58;;;11.80;99.90;;;;;;5018170;28;20054;-87
2022/01/01 06:48:02;;;;;;;173.95;40.40;;;11.90;99.90;;;;;;5034964;28;20049;-87
2022/01/01 06:50:28;;;;;;;187.93;41.08;;;12.00;99.90;;;;;;5018624;28;20049;-87
2022/01/01 06:52:54;;;;;;;146.05;39.05;;;12.00;99.90;;;;;;5018410;28;20041;-87
2022/01/01 06:55:20;;;;;;;163.98;40.85;;;11.90;99.90;;;;;;5034850;28;20041;-87
2022/01/01 06:57:46;;;;;;;155.13;39.25;;;12.00;99.90;;;;;;5018444;28;20046;-87
2022/01/01 07:00:13;;;;;;;155.65;41.00;;;12.10;99.90;;;;;;5034111;28;20115;-87
2022/01/01 07:02:44;;;;;;;155.30;41.53;;;12.00;99.90;;;;;;5034727;28;20480;-87
2022/01/01 07:05:11;;;;;;;138.90;38.58;;;11.90;99.90;;;;;;5018244;28;20045;-86
2022/01/01 07:07:37;;;;;;;156.48;39.88;;;11.80;99.90;;;;;;5034679;28;20447;-87
2022/01/01 07:10:08;;;;;;;135.65;36.53;;;11.90;99.90;;;;;;5034722;28;20049;-87
2022/01/01 07:12:35;;;;;;;168.50;42.20;;;12.00;99.90;;;;;;5035207;28;20128;-87
2022/01/01 07:15:01;;;;;;;171.13;42.55;;;12.00;99.90;;;;;;5017716;28;20045;-87
2022/01/01 07:17:26;;;;;;;200.93;44.33;;;12.10;99.90;;;;;;5034586;28;20132;-87
2022/01/01 07:19:52;;;;;;;127.15;39.17;;;12.20;99.90;;;;;;5034667;28;20100;-87
2022/01/01 07:22:18;;;;;;;133.55;39.75;;;12.20;99.90;;;;;;5034353;28;20488;-87
2022/01/01 07:24:44;;;;;;;167.57;43.33;;;12.40;99.90;;;;;;5034375;28;20087;-87
2022/01/01 07:27:11;;;;;;;142.48;40.42;;;12.40;99.90;;;;;;5017496;28;20095;-86
2022/01/01 07:29:37;;;;;;;147.10;39.15;;;12.40;99.90;;;;;;5033870;28;20056;-87
2022/01/01 07:32:03;;;;;;;145.25;41.47;;;12.40;99.90;;;;;;5034235;28;20393;-87
2022/01/01 07:34:29;;;;;;;146.93;40.78;;;12.40;99.90;;;;;;5001662;28;20056;-87
2022/01/01 07:36:55;;;;;;;144.60;39.38;;;12.40;99.90;;;;;;5034484;28;20075;-87
2022/01/01 07:39:20;;;;;;;142.73;39.13;;;12.30;99.90;;;;;;5033732;28;20077;-87
2022/01/01 07:41:46;;;;;;;136.85;39.97;;;12.30;99.90;;;;;;5034184;28;20135;-87
2022/01/01 07:44:13;;;;;;;142.70;38.08;;;12.30;99.90;;;;;;5017828;28;20045;-87
2022/01/01 07:46:39;;;;;;;131.85;37.38;;;12.30;99.90;;;;;;5034198;28;20053;-87
2022/01/01 07:49:05;;;;;;;133.95;36.55;;;12.30;99.90;;;;;;5034108;28;20085;-87
2022/01/01 07:51:31;;;;;;;101.55;31.55;;;12.30;99.90;;;;;;5033892;28;20084;-87
2022/01/01 07:53:57;;;;;;;92.30;31.35;;;12.50;99.90;;;;;;5017667;28;20053;-87
2022/01/01 07:56:23;;;;;;;84.15;30.48;;;12.50;99.90;;;;;;5033869;28;20068;-88
2022/01/01 07:58:48;;;;;;;101.68;33.75;;;12.70;99.90;;;;;;5033248;28;20504;-87
2022/01/01 08:01:14;;;;;;;98.00;32.15;;;12.80;99.90;;;;;;5000756;28;20389;-87
2022/01/01 08:03:40;;;;;;;97.18;31.35;;;12.80;99.90;;;;;;5034066;28;20052;-88
2022/01/01 08:06:05;;;;;;;107.35;31.48;;;12.80;99.90;;;;;;5033826;28;20115;-88
2022/01/01 08:08:31;;;;;;;113.45;33.00;;;12.80;99.90;;;;;;5017478;28;20473;-88
2022/01/01 08:10:58;;;;;;;96.50;30.60;;;12.80;99.90;;;;;;5050701;28;20083;-88
2022/01/01 08:13:25;;;;;;;107.40;31.50;;;13.00;99.90;;;;;;5016865;28;20049;-88
2022/01/01 08:15:52;;;;;;;95.63;32.50;;;13.00;99.90;;;;;;5017575;28;20129;-87
2022/01/01 08:18:18;;;;;;;88.43;30.83;;;13.10;99.90;;;;;;5033589;28;20054;-88
2022/01/01 08:20:45;;;;;;;110.18;33.80;;;13.10;99.90;;;;;;5033804;28;20187;-88
2022/01/01 08:23:11;;;;;;;95.47;31.30;;;13.10;99.90;;;;;;5033363;28;20037;-87
2022/01/01 08:25:37;;;;;;;113.60;33.20;;;13.10;99.90;;;;;;5033349;28;20049;-87
2022/01/01 08:28:03;;;;;;;92.78;30.13;;;13.20;99.90;;;;;;5033743;28;20074;-87
2022/01/01 08:30:29;;;;;;;79.63;27.70;;;13.20;99.90;;;;;;5033623;28;20042;-87
2022/01/01 08:33:01;;;;;;;84.50;28.63;;;13.10;99.90;;;;;;5033431;28;20045;-88
2022/01/01 08:35:36;;;;;;;108.40;33.97;;;13.20;99.90;;;;;;5017246;28;20472;-87
2022/01/01 08:38:04;;;;;;;75.80;27.27;;;13.10;99.90;;;;;;5016857;28;20488;-87
2022/01/01 08:40:31;;;;;;;89.13;29.90;;;13.10;99.90;;;;;;5032624;28;20052;-87
2022/01/01 08:42:57;;;;;;;89.25;30.33;;;13.00;99.90;;;;;;5017193;28;20091;-88
2022/01/01 08:45:24;;;;;;;85.78;30.52;;;13.00;99.90;;;;;;5049785;28;20091;-88
2022/01/01 08:47:50;;;;;;;106.80;34.45;;;13.00;99.90;;;;;;5050655;28;20136;-88
2022/01/01 08:50:16;;;;;;;116.32;33.70;;;12.90;99.90;;;;;;5033566;28;20053;-88
2022/01/01 08:52:43;;;;;;;109.43;32.92;;;13.00;99.90;;;;;;5033103;28;20072;-88
2022/01/01 08:55:09;;;;;;;111.13;33.30;;;12.90;99.90;;;;;;5033288;28;20052;-89
2022/01/01 08:57:34;;;;;;;91.93;31.67;;;12.90;99.90;;;;;;5033220;28;20042;-85
2022/01/01 09:00:03;;;;;;;97.85;32.75;;;12.90;99.90;;;;;;5015642;28;20474;-78
2022/01/01 09:02:29;;;;;;;101.35;33.10;;;12.90;99.90;;;;;;5049369;28;20083;-81
2022/01/01 09:04:55;;;;;;;102.22;33.90;;;13.00;99.90;;;;;;5033556;28;20049;-79
2022/01/01 09:07:20;;;;;;;80.07;31.38;;;12.90;99.90;;;;;;5054046;28;20064;-79
2022/01/01 09:09:46;;;;;;;91.28;33.17;;;12.80;99.90;;;;;;5040751;28;20092;-76
2022/01/01 09:12:12;;;;;;;102.05;34.47;;;12.80;99.90;;;;;;5016199;28;20504;-78
2022/01/01 09:14:38;;;;;;;90.65;34.22;;;12.90;99.90;;;;;;5031758;28;20064;-77
2022/01/01 09:17:06;;;;;;;82.45;32.17;;;13.00;99.90;;;;;;5032657;28;20477;-78
2022/01/01 09:19:32;;;;;;;83.80;32.28;;;13.00;99.90;;;;;;5032420;28;20055;-78
2022/01/01 09:21:58;;;;;;;107.32;34.38;;;13.00;99.90;;;;;;5032527;28;20089;-76
2022/01/01 09:24:23;;;;;;;74.78;31.13;;;13.10;99.90;;;;;;5032893;28;20041;-78
2022/01/01 09:26:49;;;;;;;84.97;31.15;;;13.10;99.90;;;;;;5032511;28;20050;-76
2022/01/01 09:29:15;;;;;;;75.07;30.90;;;13.10;99.90;;;;;;5017877;28;20394;-76
2022/01/01 09:31:42;;;;;;;74.55;31.63;;;13.10;99.90;;;;;;5032607;28;20056;-75
2022/01/01 09:34:08;;;;;;;66.00;30.42;;;13.10;99.90;;;;;;5033374;28;20103;-75
2022/01/01 09:36:34;;;;;;;81.80;32.95;;;13.10;99.90;;;;;;5027926;28;20096;-76
2022/01/01 09:39:02;;;;;;;70.63;30.40;;;13.30;99.90;;;;;;5029564;28;20041;-76
2022/01/01 09:41:28;;;;;;;63.40;30.10;;;13.30;99.90;;;;;;5015952;28;20056;-76
2022/01/01 09:43:54;;;;;;;84.13;32.65;;;13.20;99.90;;;;;;4997663;28;20054;-76
2022/01/01 09:46:20;;;;;;;74.18;30.13;;;13.30;99.90;;;;;;4995749;28;20103;-76
2022/01/01 09:48:46;;;;;;;65.72;29.35;;;13.30;99.90;;;;;;4995900;28;20233;-76
2022/01/01 09:51:13;;;;;;;68.07;29.15;;;13.30;99.90;;;;;;5014578;28;20095;-77
2022/01/01 09:53:39;;;;;;;76.05;31.17;;;13.40;99.90;;;;;;4999985;28;20048;-75
2022/01/01 09:56:05;;;;;;;60.00;29.23;;;13.60;99.90;;;;;;5033047;28;20046;-76
2022/01/01 09:58:33;;;;;;;62.53;29.27;;;13.40;99.90;;;;;;5035618;28;20052;-76
2022/01/01 10:01:00;;;;;;;53.83;25.75;;;13.40;99.90;;;;;;5034912;28;20404;-76
2022/01/01 10:03:56;;;;;;;61.47;24.95;;;13.30;99.90;;;;;;5035477;28;20057;-76
2022/01/01 10:06:22;;;;;;;65.43;24.75;;;13.30;99.90;;;;;;5050492;28;20053;-77
2022/01/01 10:08:56;;;;;;;47.70;23.85;;;13.30;99.90;;;;;;5035654;28;20052;-77
2022/01/01 10:11:21;;;;;;;55.25;23.75;;;13.40;99.90;;;;;;5018502;28;20147;-77
2022/01/01 10:13:47;;;;;;;45.67;23.23;;;13.50;99.90;;;;;;5034749;28;20092;-76
2022/01/01 10:16:14;;;;;;;43.08;22.20;;;13.50;99.90;;;;;;5036389;28;20049;-80
2022/01/01 10:18:48;;;;;;;47.20;21.65;;;13.60;99.90;;;;;;5068620;28;20049;-75
2022/01/01 10:21:27;;;;;;;49.05;20.52;;;13.50;99.90;;;;;;5036344;28;20132;-78
2022/01/01 10:23:55;;;;;;;45.58;19.73;;;13.40;99.90;;;;;;5019998;28;20132;-77
2022/01/01 10:29:23;;;;;;;55.63;20.13;;;13.50;99.90;;;;;;5068526;28;20400;-76
2022/01/01 10:32:03;;;;;;;53.47;20.55;;;13.60;99.90;;;;;;5023906;28;20049;-77
2022/01/01 10:34:38;;;;;;;41.45;19.35;;;13.60;99.90;;;;;;4998869;28;20508;-77
2022/01/01 10:37:06;;;;;;;38.53;18.02;;;13.60;99.90;;;;;;5015286;28;20477;-76
2022/01/01 10:39:32;;;;;;;35.58;17.85;;;13.60;99.90;;;;;;5015689;28;20061;-77
2022/01/01 10:42:03;;;;;;;41.33;19.63;;;13.70;99.90;;;;;;4999203;28;20053;-76
2022/01/01 10:44:31;;;;;;;38.63;18.50;;;13.60;99.90;;;;;;5015274;28;20485;-77
2022/01/01 10:46:59;;;;;;;42.92;16.90;;;13.60;99.90;;;;;;5050469;28;20107;-75
2022/01/01 10:49:35;;;;;;;43.50;17.98;;;13.60;99.90;;;;;;5034539;28;20484;-76
2022/01/01 10:52:29;;;;;;;35.78;18.15;;;13.70;99.90;;;;;;5033974;28;20053;-77
2022/01/01 10:55:07;;;;;;;45.33;18.75;;;13.60;99.90;;;;;;5030669;28;20485;-76
2022/01/01 10:57:38;;;;;;;38.75;17.92;;;13.70;99.90;;;;;;5027309;28;20128;-76
2022/01/01 11:00:13;;;;;;;36.70;17.83;;;13.70;99.90;;;;;;5033561;28;20050;-78
2022/01/01 11:02:42;;;;;;;37.70;16.33;;;13.80;99.90;;;;;;5033810;28;20053;-78
2022/01/01 11:05:08;;;;;;;36.90;16.58;;;13.80;99.90;;;;;;5034733;28;20136;-78
2022/01/01 11:07:35;;;;;;;36.95;16.80;;;13.80;99.90;;;;;;5018450;28;20135;-78
2022/01/01 11:10:01;;;;;;;36.80;15.73;;;13.80;99.90;;;;;;5034565;28;20548;-78
2022/01/01 11:12:30;;;;;;;34.10;16.58;;;13.90;99.90;;;;;;5034458;28;20135;-79
2022/01/01 11:14:59;;;;;;;40.13;16.33;;;13.90;99.90;;;;;;5017517;28;20049;-78
2022/01/01 11:17:26;;;;;;;31.85;15.68;;;13.80;99.90;;;;;;5034485;28;20054;-78
2022/01/01 11:19:53;;;;;;;37.40;15.38;;;13.80;99.90;;;;;;5034359;28;20067;-78
2022/01/01 11:22:18;;;;;;;38.83;15.23;;;13.80;99.90;;;;;;5034057;28;20079;-78
2022/01/01 11:24:45;;;;;;;35.70;15.23;;;13.80;99.90;;;;;;5034316;28;20436;-78
2022/01/01 11:27:12;;;;;;;32.50;14.98;;;13.60;99.90;;;;;;5034078;28;20481;-78
2022/01/01 11:29:48;;;;;;;31.90;14.23;;;13.60;99.90;;;;;;5034258;28;20104;-78
2022/01/01 11:36:03;;;;;;;31.10;13.63;;;13.70;99.90;;;;;;4962607;28;20132;-78
2022/01/01 11:38:34;;;;;;;28.50;12.45;;;13.70;99.90;;;;;;5034946;28;20514;-78
2022/01/01 11:41:08;;;;;;;33.17;12.55;;;13.70;99.90;;;;;;5034029;28;20492;-78
2022/01/01 11:43:43;;;;;;;28.35;12.43;;;13.70;99.90;;;;;;5033737;28;20520;-78
2022/01/01 11:46:23;;;;;;;31.48;12.38;;;13.70;99.90;;;;;;5018786;28;20061;-78
2022/01/01 11:49:03;;;;;;;28.45;11.98;;;13.70;99.90;;;;;;5033865;28;20089;-79
2022/01/01 11:51:43;;;;;;;24.52;10.95;;;13.90;99.90;;;;;;5033775;28;20143;-78
2022/01/01 11:54:08;;;;;;;32.85;11.82;;;13.80;99.90;;;;;;5033815;28;20503;-78
2022/01/01 11:56:46;;;;;;;31.77;12.13;;;13.90;99.90;;;;;;5033639;28;20049;-78
2022/01/01 11:59:27;;;;;;;22.70;9.20;;;13.80;99.90;;;;;;5033446;28;20511;-79
2022/01/01 12:02:02;;;;;;;20.85;9.07;;;13.80;99.90;;;;;;5033523;28;20477;-78
2022/01/01 12:04:28;;;;;;;26.63;10.13;;;13.90;99.90;;;;;;5033550;28;20053;-78
2022/01/01 12:06:58;;;;;;;20.55;8.90;;;13.90;99.90;;;;;;5033992;28;20046;-83
2022/01/01 12:09:24;;;;;;;25.10;8.68;;;13.90;99.90;;;;;;5036717;28;20054;-82
2022/01/01 12:11:55;;;;;;;21.77;9.48;;;13.80;99.90;;;;;;5035618;28;20084;-77
2022/01/01 12:14:26;;;;;;;20.92;7.93;;;13.80;99.90;;;;;;5032219;28;20554;-82
2022/01/01 12:16:53;;;;;;;19.30;7.32;;;13.80;99.90;;;;;;5033372;28;20049;-81
2022/01/01 12:19:22;;;;;;;21.90;7.47;;;13.80;99.90;;;;;;5016907;28;20041;-82
2022/01/01 12:21:59;;;;;;;19.80;7.60;;;13.80;99.90;;;;;;5033301;28;20049;-82
2022/01/01 12:24:27;;;;;;;16.98;6.68;;;13.80;99.90;;;;;;5033348;28;20084;-79
2022/01/01 12:26:53;;;;;;;21.65;6.85;;;13.80;99.90;;;;;;5021274;28;20428;-78
2022/01/01 12:29:25;;;;;;;14.90;6.10;;;13.80;99.90;;;;;;5033155;28;20049;-78
2022/01/01 12:31:58;;;;;;;18.15;7.20;;;13.80;99.90;;;;;;5033019;28;20053;-78